Time;durP1;ratioP1;P1;durP2;ratioP2;P2;SDS_P1;SDS_P2;PMS_P1;PMS_P2;Temp;Humidity;BMP_temperature;BMP_pressure;BME280_temperature;BME280_humidity;BME280_pressure;Samples;Min_cycle;Max_cycle;Signal;HPM_P1;HPM_P2
2021/07/11 00:01:01;;;;;;;3.22;2.20;;;14.30;91.70;;;;;;5086459;28;20390;-47
2021/07/11 00:03:29;;;;;;;3.03;1.63;;;14.50;92.40;;;;;;5080855;28;20040;-46
2021/07/11 00:05:56;;;;;;;4.28;1.92;;;14.60;92.00;;;;;;5086018;28;20115;-53
2021/07/11 00:08:23;;;;;;;3.08;1.77;;;14.90;92.40;;;;;;5087016;28;20028;-54
2021/07/11 00:10:51;;;;;;;5.72;1.77;;;15.10;92.30;;;;;;5086409;28;20502;-50
2021/07/11 00:13:19;;;;;;;3.22;1.25;;;15.30;91.50;;;;;;5082395;28;20846;-48
2021/07/11 00:15:46;;;;;;;3.67;1.85;;;15.60;89.70;;;;;;5087688;28;20039;-51
2021/07/11 00:18:14;;;;;;;3.28;1.52;;;15.80;88.50;;;;;;5088018;28;20024;-51
2021/07/11 00:20:41;;;;;;;4.05;1.63;;;15.90;86.30;;;;;;5091070;28;20031;-49
2021/07/11 00:23:08;;;;;;;1.98;1.20;;;15.90;87.10;;;;;;5086211;28;20040;-54
2021/07/11 00:25:36;;;;;;;5.15;1.55;;;15.90;85.80;;;;;;5091882;28;20093;-50
2021/07/11 00:28:04;;;;;;;3.75;1.58;;;15.80;86.20;;;;;;5091205;28;20052;-50
2021/07/11 00:30:31;;;;;;;4.53;2.03;;;15.80;87.20;;;;;;5090858;28;20032;-52
2021/07/11 00:32:59;;;;;;;3.42;1.77;;;15.70;88.00;;;;;;5086469;28;20039;-49
2021/07/11 00:35:26;;;;;;;1.60;1.10;;;15.70;86.90;;;;;;5091191;28;20363;-47
2021/07/11 00:37:54;;;;;;;1.58;1.23;;;15.60;87.90;;;;;;5090322;28;20463;-51
2021/07/11 00:40:21;;;;;;;2.58;1.42;;;15.50;87.30;;;;;;5090857;28;20036;-55
2021/07/11 00:42:49;;;;;;;6.15;1.50;;;15.50;87.70;;;;;;5089469;28;20065;-57
2021/07/11 00:45:16;;;;;;;3.03;1.30;;;15.50;88.60;;;;;;5088611;28;20031;-51
2021/07/11 00:47:44;;;;;;;6.30;1.65;;;15.50;87.60;;;;;;5090246;28;20063;-51
2021/07/11 00:50:15;;;;;;;12.10;2.22;;;15.50;88.30;;;;;;5090510;28;20086;-57
2021/07/11 00:52:43;;;;;;;5.88;1.70;;;15.60;90.00;;;;;;5090999;28;20043;-49
2021/07/11 00:55:11;;;;;;;3.72;1.75;;;15.60;89.90;;;;;;5087382;28;20020;-53
2021/07/11 00:57:38;;;;;;;3.78;1.42;;;15.90;90.10;;;;;;5090838;28;20089;-50
2021/07/11 01:00:08;;;;;;;6.82;1.45;;;16.10;90.00;;;;;;5089996;28;20425;-51
2021/07/11 01:03:13;;;;;;;5.15;1.58;;;16.30;88.40;;;;;;5088130;28;20386;-58
2021/07/11 01:05:43;;;;;;;8.70;1.80;;;16.60;88.50;;;;;;5066889;28;20106;-50
2021/07/11 01:08:14;;;;;;;7.22;1.70;;;17.10;87.20;;;;;;5090550;28;20024;-49
2021/07/11 01:11:07;;;;;;;5.00;2.17;;;17.40;83.60;;;;;;5089724;28;20070;-52
2021/07/11 01:13:37;;;;;;;3.47;1.42;;;17.80;83.30;;;;;;5082597;28;20047;-53
2021/07/11 01:16:15;;;;;;;5.13;1.88;;;18.20;80.40;;;;;;5090505;28;20039;-48
2021/07/11 01:18:45;;;;;;;7.20;1.65;;;18.30;80.20;;;;;;5090294;28;20089;-53
2021/07/11 01:21:16;;;;;;;3.75;1.48;;;18.60;80.20;;;;;;5089654;28;20395;-51
2021/07/11 01:23:58;;;;;;;4.70;1.40;;;18.90;76.80;;;;;;5084700;28;20077;-54
2021/07/11 01:26:30;;;;;;;2.92;1.42;;;19.00;76.40;;;;;;5089410;28;20474;-55
2021/07/11 01:28:59;;;;;;;5.50;1.55;;;19.20;75.80;;;;;;5089193;28;20052;-54
2021/07/11 01:31:28;;;;;;;3.65;1.58;;;19.20;74.60;;;;;;5085482;28;20052;-54
2021/07/11 01:33:56;;;;;;;3.03;1.20;;;19.10;75.40;;;;;;5085077;28;20047;-53
2021/07/11 01:36:23;;;;;;;5.20;1.65;;;19.00;73.90;;;;;;5089985;28;20555;-54
2021/07/11 01:38:52;;;;;;;4.95;1.33;;;18.70;75.00;;;;;;5089565;28;20039;-53
2021/07/11 01:41:21;;;;;;;5.40;1.35;;;18.60;76.20;;;;;;5087602;28;20130;-53
2021/07/11 01:43:55;;;;;;;6.93;1.85;;;18.60;77.50;;;;;;5084584;28;20020;-53
2021/07/11 01:46:24;;;;;;;5.00;1.45;;;18.50;77.30;;;;;;5090845;28;20044;-51
2021/07/11 01:48:52;;;;;;;2.90;1.20;;;18.60;77.60;;;;;;5088838;28;20078;-49
2021/07/11 01:51:22;;;;;;;3.00;1.33;;;18.50;77.00;;;;;;5089605;28;20092;-54
2021/07/11 01:53:52;;;;;;;2.80;1.23;;;18.70;76.00;;;;;;5083905;28;20021;-54
2021/07/11 01:56:20;;;;;;;4.28;1.55;;;18.50;76.40;;;;;;5088843;28;20547;-50
2021/07/11 01:58:48;;;;;;;3.55;1.45;;;18.50;77.40;;;;;;5089709;28;20032;-51
2021/07/11 02:01:18;;;;;;;4.38;1.40;;;18.70;78.10;;;;;;5088836;28;20030;-59
2021/07/11 02:03:45;;;;;;;2.95;1.33;;;18.60;75.80;;;;;;5084514;28;20028;-57
2021/07/11 02:06:14;;;;;;;2.35;1.35;;;18.60;76.40;;;;;;5089829;28;20024;-53
2021/07/11 02:08:42;;;;;;;6.13;1.80;;;18.40;77.10;;;;;;5089157;28;20028;-57
2021/07/11 02:11:15;;;;;;;2.90;1.10;;;18.30;76.90;;;;;;5088159;28;20028;-58
2021/07/11 02:14:01;;;;;;;3.05;1.17;;;18.30;79.40;;;;;;5084275;28;20043;-55
2021/07/11 02:16:48;;;;;;;4.07;1.88;;;18.40;79.50;;;;;;5089063;28;20040;-57
2021/07/11 02:19:18;;;;;;;3.25;1.00;;;18.70;78.80;;;;;;5087727;28;20089;-52
2021/07/11 02:21:46;;;;;;;3.13;1.30;;;18.70;76.50;;;;;;5088479;28;20028;-56
2021/07/11 02:24:15;;;;;;;3.97;1.58;;;18.80;76.30;;;;;;5083301;28;20026;-47
2021/07/11 02:26:43;;;;;;;5.05;1.35;;;18.90;77.50;;;;;;5090037;28;20525;-55
2021/07/11 02:29:12;;;;;;;3.03;1.42;;;19.00;76.50;;;;;;5089629;28;20443;-53
2021/07/11 02:31:41;;;;;;;3.72;1.17;;;19.30;76.40;;;;;;5087055;28;20067;-56
2021/07/11 02:34:13;;;;;;;3.47;1.20;;;19.40;75.10;;;;;;5082768;28;20055;-58
2021/07/11 02:36:55;;;;;;;2.45;1.35;;;19.50;74.50;;;;;;5086635;28;20028;-56
2021/07/11 02:39:22;;;;;;;;;;;19.60;74.60;;;;;;5089622;28;20115;-58
2021/07/11 02:41:53;;;;;;;2.20;1.13;;;19.60;72.80;;;;;;5087214;28;19953;-55
2021/07/11 02:44:22;;;;;;;3.00;0.98;;;19.50;72.20;;;;;;5083584;28;20028;-53
2021/07/11 02:47:01;;;;;;;2.60;1.50;;;19.40;72.80;;;;;;5086959;28;20108;-60
2021/07/11 02:49:33;;;;;;;7.70;2.15;;;19.20;73.60;;;;;;5088985;28;20335;-61
2021/07/11 02:52:05;;;;;;;4.60;1.92;;;18.90;74.10;;;;;;5087989;28;20078;-56
2021/07/11 02:54:43;;;;;;;5.72;1.77;;;18.80;75.00;;;;;;5083554;28;20112;-54
2021/07/11 02:57:12;;;;;;;4.93;2.08;;;18.60;75.70;;;;;;5088712;28;20024;-58
2021/07/11 02:59:41;;;;;;;3.95;1.20;;;18.40;76.50;;;;;;5088730;28;20032;-55
2021/07/11 03:02:09;;;;;;;4.10;1.50;;;18.20;77.60;;;;;;5085965;28;20101;-53
2021/07/11 03:04:40;;;;;;;5.85;1.90;;;18.10;79.40;;;;;;5083415;28;20417;-54
2021/07/11 03:07:08;;;;;;;5.68;1.80;;;18.20;79.70;;;;;;5088217;28;20069;-55
2021/07/11 03:09:36;;;;;;;4.88;1.73;;;18.10;80.40;;;;;;5088534;28;20042;-49
2021/07/11 03:12:04;;;;;;;9.00;2.05;;;18.20;80.70;;;;;;5087639;28;20089;-51
2021/07/11 03:14:32;;;;;;;3.42;1.42;;;18.30;80.40;;;;;;5083168;28;20435;-51
2021/07/11 03:17:01;;;;;;;6.20;1.80;;;18.60;80.80;;;;;;5088056;28;20599;-52
2021/07/11 03:19:30;;;;;;;3.63;1.67;;;18.70;78.40;;;;;;5088299;28;20051;-54
2021/07/11 03:21:59;;;;;;;3.83;1.33;;;18.80;75.80;;;;;;5087575;28;20059;-52
2021/07/11 03:24:28;;;;;;;2.40;1.17;;;18.70;76.00;;;;;;5081933;28;20921;-55
2021/07/11 03:27:00;;;;;;;3.75;1.35;;;18.70;77.00;;;;;;5088071;28;20085;-50
2021/07/11 03:29:35;;;;;;;7.25;1.83;;;18.80;78.40;;;;;;5088119;28;20072;-49
2021/07/11 03:32:04;;;;;;;3.53;1.70;;;18.70;76.20;;;;;;5085630;28;20077;-54
2021/07/11 03:34:34;;;;;;;;;;;18.70;76.60;;;;;;5081490;28;20487;-55
2021/07/11 03:37:10;;;;;;;4.65;1.77;;;18.60;76.70;;;;;;5088168;28;19911;-55
2021/07/11 03:39:44;;;;;;;2.10;1.58;;;18.60;78.70;;;;;;5087449;28;20028;-54
2021/07/11 03:42:12;;;;;;;3.28;1.83;;;18.60;78.30;;;;;;5084681;28;20122;-57
2021/07/11 03:44:47;;;;;;;4.18;1.52;;;18.60;78.20;;;;;;5084059;28;20028;-53
2021/07/11 03:47:19;;;;;;;2.45;1.63;;;18.60;77.50;;;;;;5085784;28;20487;-54
2021/07/11 03:49:49;;;;;;;3.63;1.50;;;18.60;79.50;;;;;;5087860;28;20441;-55
2021/07/11 03:52:20;;;;;;;3.33;1.85;;;18.70;76.60;;;;;;5087258;28;20502;-56
2021/07/11 03:54:49;;;;;;;6.05;1.98;;;18.70;77.90;;;;;;5081539;28;20032;-54
2021/07/11 03:57:16;;;;;;;5.25;1.83;;;18.90;78.50;;;;;;5087614;28;20121;-56
2021/07/11 03:59:46;;;;;;;4.30;1.50;;;19.00;76.30;;;;;;5086592;28;20024;-53
2021/07/11 04:02:16;;;;;;;2.90;1.45;;;19.00;75.30;;;;;;5087497;28;20073;-58
2021/07/11 04:04:45;;;;;;;2.72;1.33;;;19.00;77.20;;;;;;5082050;28;20032;-53
2021/07/11 04:07:13;;;;;;;4.55;1.50;;;19.10;77.90;;;;;;5087587;28;20078;-58
2021/07/11 04:09:43;;;;;;;3.38;1.45;;;19.30;76.90;;;;;;5087398;28;20086;-51
2021/07/11 04:12:11;;;;;;;2.28;1.40;;;19.30;74.90;;;;;;5087093;28;20422;-55
2021/07/11 04:14:39;;;;;;;2.90;1.60;;;19.30;76.30;;;;;;5082319;28;20016;-51
2021/07/11 04:17:09;;;;;;;2.92;1.33;;;19.40;75.20;;;;;;5088616;28;20114;-59
2021/07/11 04:19:42;;;;;;;2.72;1.90;;;19.50;75.60;;;;;;5089090;28;20189;-56
2021/07/11 04:22:15;;;;;;;4.93;1.52;;;19.50;75.80;;;;;;5089093;28;20077;-60
2021/07/11 04:24:44;;;;;;;3.50;1.40;;;19.60;73.40;;;;;;5087704;28;20044;-58
2021/07/11 04:27:12;;;;;;;7.55;1.90;;;19.50;74.20;;;;;;5089044;28;20188;-56
2021/07/11 04:29:40;;;;;;;3.97;1.63;;;19.30;76.20;;;;;;5088812;28;20050;-61
2021/07/11 04:32:10;;;;;;;4.10;1.60;;;19.40;76.40;;;;;;5088862;28;20044;-57
2021/07/11 04:34:39;;;;;;;3.65;1.30;;;19.20;75.70;;;;;;5089312;28;20082;-61
2021/07/11 04:37:07;;;;;;;2.72;1.45;;;19.10;75.60;;;;;;5088636;28;20052;-53
2021/07/11 04:39:35;;;;;;;4.18;1.55;;;18.90;76.00;;;;;;5088465;28;20032;-56
2021/07/11 04:42:03;;;;;;;2.47;1.23;;;18.70;77.00;;;;;;5088224;28;20040;-54
2021/07/11 04:44:32;;;;;;;3.30;1.40;;;18.50;78.10;;;;;;5086688;28;20028;-58
2021/07/11 04:46:59;;;;;;;2.25;1.38;;;18.30;78.70;;;;;;5088614;28;20039;-57
2021/07/11 04:49:28;;;;;;;6.07;1.45;;;18.10;79.70;;;;;;5088404;28;20021;-54
2021/07/11 04:51:57;;;;;;;3.33;1.83;;;17.90;80.10;;;;;;5088887;28;20054;-54
2021/07/11 04:54:25;;;;;;;1.88;1.23;;;17.80;80.80;;;;;;5088588;28;20047;-58
2021/07/11 04:56:52;;;;;;;4.60;1.52;;;17.70;81.60;;;;;;5088929;28;20487;-59
2021/07/11 04:59:20;;;;;;;2.50;1.35;;;17.60;81.50;;;;;;5088361;28;20077;-55
2021/07/11 05:01:47;;;;;;;4.13;1.73;;;17.50;82.30;;;;;;5088425;28;20035;-51
2021/07/11 05:04:15;;;;;;;5.20;1.73;;;17.40;82.10;;;;;;5089440;28;20027;-59
2021/07/11 05:06:42;;;;;;;4.53;1.33;;;17.40;82.70;;;;;;5092127;28;20115;-57
2021/07/11 05:09:10;;;;;;;4.10;1.20;;;17.30;84.00;;;;;;5090999;28;20032;-60
2021/07/11 05:11:37;;;;;;;4.13;1.30;;;17.40;84.50;;;;;;5092217;28;20044;-54
2021/07/11 05:14:05;;;;;;;2.38;1.30;;;17.40;85.40;;;;;;5091589;28;20036;-55
2021/07/11 05:16:33;;;;;;;2.83;1.25;;;17.70;85.90;;;;;;5091829;28;20448;-55
2021/07/11 05:19:02;;;;;;;4.80;1.65;;;17.90;84.00;;;;;;5091805;28;20020;-61
2021/07/11 05:21:31;;;;;;;3.33;1.50;;;18.10;83.50;;;;;;5091899;28;20095;-56
2021/07/11 05:23:58;;;;;;;5.78;1.40;;;18.20;81.60;;;;;;5090236;28;20344;-57
2021/07/11 05:26:26;;;;;;;2.75;1.58;;;18.30;81.10;;;;;;5090129;28;20032;-59
2021/07/11 05:28:53;;;;;;;4.47;1.50;;;18.40;81.10;;;;;;5090068;28;20044;-57
2021/07/11 05:31:21;;;;;;;5.15;1.63;;;18.40;80.10;;;;;;5090249;28;20035;-58
2021/07/11 05:33:48;;;;;;;5.68;1.95;;;18.50;80.80;;;;;;5091707;28;20047;-58
2021/07/11 05:36:16;;;;;;;6.22;1.83;;;18.60;79.70;;;;;;5091595;28;20032;-60
2021/07/11 05:38:43;;;;;;;2.88;1.20;;;18.70;79.20;;;;;;5091416;28;20024;-57
2021/07/11 05:41:11;;;;;;;4.50;1.45;;;18.70;78.40;;;;;;5090843;28;20037;-55
2021/07/11 05:43:38;;;;;;;4.13;1.65;;;18.70;78.20;;;;;;5090018;28;20039;-53
2021/07/11 05:46:05;;;;;;;4.18;1.52;;;18.60;78.10;;;;;;5091365;28;20689;-55
2021/07/11 05:48:33;;;;;;;5.07;1.50;;;18.50;77.80;;;;;;5091460;28;20039;-58
2021/07/11 05:51:00;;;;;;;4.13;1.55;;;18.40;78.50;;;;;;5091004;28;20109;-51
2021/07/11 05:53:28;;;;;;;3.15;1.30;;;18.30;78.60;;;;;;5091334;28;20082;-52
2021/07/11 05:55:55;;;;;;;5.10;1.83;;;18.20;79.50;;;;;;5091248;28;20032;-56
2021/07/11 05:58:23;;;;;;;1.92;1.30;;;18.00;80.00;;;;;;5091375;28;20020;-57
2021/07/11 06:00:50;;;;;;;6.28;1.63;;;17.90;80.70;;;;;;5089304;28;20024;-54
2021/07/11 06:03:18;;;;;;;4.65;2.83;;;17.90;81.00;;;;;;5091277;28;20032;-59
2021/07/11 06:05:46;;;;;;;3.33;1.50;;;17.80;80.80;;;;;;5090874;28;20040;-57
2021/07/11 06:08:13;;;;;;;4.57;1.70;;;17.70;82.40;;;;;;5091018;28;20515;-52
2021/07/11 06:10:41;;;;;;;5.22;1.73;;;17.60;81.90;;;;;;5090768;28;20055;-60
2021/07/11 06:13:08;;;;;;;7.43;2.28;;;17.50;82.30;;;;;;5090217;28;20042;-54
2021/07/11 06:15:36;;;;;;;2.58;1.42;;;17.40;82.80;;;;;;5090548;28;20035;-59
2021/07/11 06:18:06;;;;;;;4.47;1.95;;;17.30;83.30;;;;;;5090640;28;20047;-55
2021/07/11 06:20:34;;;;;;;4.00;1.65;;;17.30;83.60;;;;;;5090925;28;20028;-59
2021/07/11 06:23:02;;;;;;;5.50;2.00;;;17.20;83.80;;;;;;5090396;28;20199;-50
2021/07/11 06:25:30;;;;;;;5.72;1.77;;;17.10;84.10;;;;;;5090417;28;20031;-54
2021/07/11 06:27:57;;;;;;;3.60;1.38;;;17.00;84.50;;;;;;5090097;28;20044;-55
2021/07/11 06:30:25;;;;;;;3.22;1.50;;;17.00;84.90;;;;;;5090292;28;20431;-53
2021/07/11 06:32:52;;;;;;;4.15;1.80;;;17.00;84.90;;;;;;5090149;28;20024;-56
2021/07/11 06:35:23;;;;;;;6.72;1.83;;;16.80;85.50;;;;;;5089209;28;20028;-51
2021/07/11 06:37:52;;;;;;;3.13;1.27;;;16.90;85.60;;;;;;5090549;28;20071;-54
2021/07/11 06:40:25;;;;;;;3.88;1.60;;;16.80;85.80;;;;;;5089864;28;20024;-54
2021/07/11 06:42:52;;;;;;;4.47;1.67;;;16.80;86.40;;;;;;5090707;28;20031;-56
2021/07/11 06:45:20;;;;;;;3.65;1.85;;;16.70;86.40;;;;;;5090659;28;20047;-59
2021/07/11 06:47:48;;;;;;;4.05;2.13;;;16.70;87.00;;;;;;5090926;28;20356;-55
2021/07/11 06:50:17;;;;;;;5.85;1.90;;;16.60;87.20;;;;;;5090679;28;20036;-53
2021/07/11 06:52:48;;;;;;;3.10;1.20;;;16.60;87.40;;;;;;5090650;28;20028;-48
2021/07/11 06:55:17;;;;;;;3.00;1.35;;;16.50;87.70;;;;;;5090670;28;20077;-50
2021/07/11 06:57:44;;;;;;;3.88;1.92;;;16.50;87.80;;;;;;5090144;28;20027;-55
2021/07/11 07:00:13;;;;;;;2.45;1.20;;;16.40;88.00;;;;;;5089992;28;20059;-55
2021/07/11 07:02:41;;;;;;;2.63;1.00;;;16.40;88.20;;;;;;5089979;28;20036;-58
2021/07/11 07:05:10;;;;;;;6.10;2.22;;;16.40;88.40;;;;;;5089910;28;20024;-58
2021/07/11 07:07:39;;;;;;;4.78;1.63;;;16.30;88.40;;;;;;5089895;28;20475;-54
2021/07/11 07:10:10;;;;;;;4.43;2.15;;;16.30;88.50;;;;;;5089683;28;20131;-55
2021/07/11 07:12:41;;;;;;;2.47;1.33;;;16.30;88.70;;;;;;5089689;28;20055;-58
2021/07/11 07:15:09;;;;;;;3.83;1.73;;;16.20;88.60;;;;;;5089039;28;20036;-58
2021/07/11 07:17:37;;;;;;;3.20;1.65;;;16.20;88.70;;;;;;5087443;28;20073;-57
2021/07/11 07:20:08;;;;;;;7.18;2.63;;;16.20;88.80;;;;;;5089792;28;20023;-56
2021/07/11 07:22:36;;;;;;;4.13;1.70;;;16.10;88.80;;;;;;5089491;28;20024;-57
2021/07/11 07:25:07;;;;;;;4.50;1.42;;;16.20;88.90;;;;;;5089613;28;20135;-52
2021/07/11 07:27:34;;;;;;;3.42;1.65;;;16.10;89.00;;;;;;5089557;28;20028;-49
2021/07/11 07:30:03;;;;;;;3.80;1.80;;;16.10;89.10;;;;;;5089690;28;20120;-51
2021/07/11 07:32:30;;;;;;;2.45;1.20;;;16.10;89.10;;;;;;5089734;28;20454;-59
2021/07/11 07:34:57;;;;;;;2.65;1.13;;;16.00;88.90;;;;;;5089552;28;20108;-54
2021/07/11 07:37:25;;;;;;;2.22;1.17;;;16.00;88.90;;;;;;5089727;28;20043;-54
2021/07/11 07:39:52;;;;;;;2.65;1.30;;;16.00;89.10;;;;;;5089600;28;20036;-56
2021/07/11 07:42:19;;;;;;;2.67;1.58;;;16.00;89.10;;;;;;5089233;28;20051;-57
2021/07/11 07:44:47;;;;;;;2.03;1.40;;;15.90;89.20;;;;;;5089207;28;20024;-55
2021/07/11 07:47:14;;;;;;;3.55;1.63;;;15.90;89.30;;;;;;5089323;28;20470;-52
2021/07/11 07:49:42;;;;;;;4.13;1.45;;;15.80;89.30;;;;;;5088819;28;20035;-53
2021/07/11 07:52:09;;;;;;;4.53;1.50;;;15.80;89.40;;;;;;5089148;28;20039;-56
2021/07/11 07:54:37;;;;;;;20.50;5.10;;;15.80;89.50;;;;;;5088618;28;20502;-49
2021/07/11 07:57:04;;;;;;;28.83;7.35;;;15.80;89.70;;;;;;5082505;28;20042;-53
2021/07/11 07:59:32;;;;;;;32.38;8.30;;;15.70;89.70;;;;;;5089248;28;20035;-50
2021/07/11 08:02:00;;;;;;;42.25;11.07;;;15.70;89.70;;;;;;5095934;28;20422;-52
2021/07/11 08:04:27;;;;;;;38.40;10.48;;;15.70;89.80;;;;;;5109484;28;20031;-51
2021/07/11 08:06:55;;;;;;;34.55;10.52;;;15.60;89.90;;;;;;5109061;28;20036;-50
2021/07/11 08:09:22;;;;;;;41.28;11.85;;;15.60;89.90;;;;;;5109321;28;20023;-50
2021/07/11 08:11:50;;;;;;;42.80;11.90;;;15.60;89.90;;;;;;5107242;28;20039;-51
2021/07/11 08:14:17;;;;;;;50.63;13.68;;;15.60;90.00;;;;;;5107443;28;20520;-48
2021/07/11 08:16:45;;;;;;;59.50;15.13;;;15.50;90.00;;;;;;5108994;28;20485;-50
2021/07/11 08:19:12;;;;;;;53.55;14.60;;;15.50;90.00;;;;;;5109071;28;20024;-54
2021/07/11 08:21:40;;;;;;;50.13;15.60;;;15.50;90.10;;;;;;5109006;28;20164;-52
2021/07/11 08:24:07;;;;;;;67.18;17.00;;;15.50;90.10;;;;;;5109265;28;20027;-55
2021/07/11 08:26:34;;;;;;;59.20;15.90;;;15.50;90.10;;;;;;5108218;28;20494;-55
2021/07/11 08:29:02;;;;;;;47.92;15.80;;;15.50;90.20;;;;;;5107701;28;20167;-55
2021/07/11 08:31:30;;;;;;;62.65;18.45;;;15.40;90.20;;;;;;5108184;28;20062;-58
2021/07/11 08:33:57;;;;;;;59.65;20.17;;;15.40;90.20;;;;;;5109171;28;20035;-53
2021/07/11 08:36:27;;;;;;;48.13;17.75;;;15.40;90.20;;;;;;5109230;28;20044;-57
2021/07/11 08:38:54;;;;;;;68.57;19.80;;;15.40;90.30;;;;;;5108995;28;20085;-51
2021/07/11 08:41:22;;;;;;;62.47;18.73;;;15.40;90.30;;;;;;5113364;27;20548;-55
2021/07/11 08:43:51;;;;;;;79.70;30.27;;;15.30;90.30;;;;;;5089017;28;20059;-54
2021/07/11 08:46:18;;;;;;;106.22;40.40;;;15.30;90.50;;;;;;5092139;28;20556;-59
2021/07/11 08:48:51;;;;;;;122.90;48.00;;;15.30;90.50;;;;;;5089456;28;20038;-51
2021/07/11 08:51:18;;;;;;;132.73;52.17;;;15.30;90.60;;;;;;5087300;28;20466;-52
2021/07/11 08:53:48;;;;;;;150.70;57.10;;;15.20;90.50;;;;;;5089072;28;20039;-55
2021/07/11 08:56:28;;;;;;;154.10;61.55;;;15.20;90.60;;;;;;5090612;28;20032;-57
2021/07/11 08:58:59;;;;;;;164.93;65.38;;;15.20;90.60;;;;;;5088193;28;20020;-57
2021/07/11 09:01:28;;;;;;;155.60;66.20;;;15.20;90.60;;;;;;5086091;28;20036;-56
2021/07/11 09:04:06;;;;;;;165.23;69.47;;;15.20;90.60;;;;;;5089790;28;20024;-58
2021/07/11 09:07:02;;;;;;;162.32;69.78;;;15.20;90.60;;;;;;5088301;28;20075;-53
2021/07/11 09:09:32;;;;;;;173.95;72.40;;;15.20;90.50;;;;;;5086552;28;20032;-53
2021/07/11 09:12:03;;;;;;;167.82;73.43;;;15.20;90.60;;;;;;5083685;28;20107;-58
2021/07/11 09:14:59;;;;;;;167.60;74.30;;;15.20;90.50;;;;;;5089943;28;20466;-56
2021/07/11 09:17:26;;;;;;;164.25;72.63;;;15.20;90.50;;;;;;5085881;28;20044;-51
2021/07/11 09:19:53;;;;;;;180.90;77.35;;;15.20;90.60;;;;;;5085261;28;20032;-54
2021/07/11 09:22:23;;;;;;;170.95;77.25;;;15.20;90.60;;;;;;5090224;28;20103;-54
2021/07/11 09:24:55;;;;;;;172.40;74.82;;;15.20;90.50;;;;;;5087347;28;20119;-51
2021/07/11 09:27:33;;;;;;;178.00;78.38;;;15.20;90.60;;;;;;5090489;28;20461;-52
2021/07/11 09:30:09;;;;;;;179.45;77.28;;;15.20;90.50;;;;;;5084777;28;20046;-53
2021/07/11 09:32:38;;;;;;;174.43;79.15;;;15.20;90.60;;;;;;5089608;28;20028;-55
2021/07/11 09:35:21;;;;;;;173.82;74.82;;;15.10;90.50;;;;;;5089157;28;20747;-59
2021/07/11 09:37:55;;;;;;;180.15;79.60;;;15.10;90.70;;;;;;5090801;28;20115;-58
2021/07/11 09:40:24;;;;;;;181.10;84.53;;;15.10;90.70;;;;;;5086083;28;20024;-47
2021/07/11 09:42:56;;;;;;;177.85;82.10;;;15.10;90.70;;;;;;5089243;28;20056;-51
2021/07/11 09:45:30;;;;;;;177.65;76.78;;;15.10;90.60;;;;;;5088648;28;20054;-55
2021/07/11 09:48:08;;;;;;;180.82;81.18;;;15.10;90.60;;;;;;5090077;28;20080;-48
2021/07/11 09:50:36;;;;;;;176.50;82.32;;;15.00;90.60;;;;;;5084956;28;20036;-56
2021/07/11 09:53:06;;;;;;;172.38;83.28;;;15.10;90.70;;;;;;5088360;28;20039;-55
2021/07/11 09:55:37;;;;;;;179.63;84.13;;;15.00;90.90;;;;;;5089671;28;20458;-52
2021/07/11 09:58:11;;;;;;;175.40;86.38;;;15.00;90.60;;;;;;5089984;28;20023;-52
2021/07/11 10:00:43;;;;;;;178.82;82.90;;;15.00;90.60;;;;;;5085054;28;20055;-53
2021/07/11 10:03:11;;;;;;;;;;;15.00;90.60;;;;;;5089647;28;20039;-52
2021/07/11 10:05:43;;;;;;;173.75;84.55;;;15.00;90.60;;;;;;5089356;28;19919;-48
2021/07/11 10:08:12;;;;;;;178.70;86.90;;;15.00;90.70;;;;;;5089070;28;20093;-53
2021/07/11 10:10:48;;;;;;;180.65;86.32;;;14.90;90.60;;;;;;5083062;28;20055;-52
2021/07/11 10:13:15;;;;;;;178.77;85.68;;;15.00;90.70;;;;;;5089065;28;20054;-53
2021/07/11 10:15:42;;;;;;;177.43;85.53;;;14.90;90.70;;;;;;5089476;28;20063;-51
2021/07/11 10:18:14;;;;;;;186.15;89.35;;;14.90;90.70;;;;;;5089408;28;20456;-53
2021/07/11 10:20:58;;;;;;;165.73;82.70;;;14.90;90.70;;;;;;5082766;28;20024;-57
2021/07/11 10:23:34;;;;;;;163.30;83.10;;;14.90;90.70;;;;;;5087467;28;20119;-51
2021/07/11 10:26:11;;;;;;;166.00;84.65;;;14.90;90.70;;;;;;5090672;28;20114;-51
2021/07/11 10:28:46;;;;;;;178.30;84.00;;;14.80;90.70;;;;;;5090359;28;20068;-50
2021/07/11 10:31:26;;;;;;;169.27;82.30;;;14.80;90.70;;;;;;5090770;28;20050;-52
2021/07/11 10:33:56;;;;;;;167.85;84.10;;;14.80;90.60;;;;;;5090824;28;20059;-55
2021/07/11 10:36:31;;;;;;;183.25;84.47;;;14.80;90.70;;;;;;5090666;28;20032;-51
2021/07/11 10:39:00;;;;;;;156.80;80.35;;;14.80;90.70;;;;;;5090088;28;20032;-53
2021/07/11 10:41:32;;;;;;;171.45;82.22;;;14.70;90.70;;;;;;5090644;28;20028;-51
2021/07/11 10:44:06;;;;;;;162.40;81.72;;;14.70;90.70;;;;;;5090313;28;20109;-51
2021/07/11 10:46:36;;;;;;;157.95;79.50;;;14.70;90.70;;;;;;5090304;28;20093;-52
2021/07/11 10:49:31;;;;;;;165.20;79.00;;;14.70;90.70;;;;;;5089836;28;20044;-54
2021/07/11 10:52:01;;;;;;;162.88;80.97;;;14.70;90.70;;;;;;5066770;28;20139;-55
2021/07/11 10:54:35;;;;;;;157.65;79.28;;;14.60;90.70;;;;;;5090264;28;20036;-56
2021/07/11 10:57:07;;;;;;;149.05;75.57;;;14.60;90.70;;;;;;5090233;28;20040;-53
2021/07/11 10:59:36;;;;;;;145.70;75.05;;;14.60;90.70;;;;;;5089920;28;20031;-53
2021/07/11 11:02:20;;;;;;;150.50;75.80;;;14.60;90.70;;;;;;5076399;28;20036;-51
2021/07/11 11:04:59;;;;;;;151.38;76.65;;;14.60;90.70;;;;;;5089615;28;20116;-48
2021/07/11 11:07:37;;;;;;;151.35;77.07;;;14.50;90.80;;;;;;5090002;28;20035;-51
2021/07/11 11:10:05;;;;;;;146.25;74.50;;;14.50;90.80;;;;;;5089623;28;20105;-52
2021/07/11 11:12:32;;;;;;;154.02;78.38;;;14.50;91.10;;;;;;5089954;28;20020;-53
2021/07/11 11:15:14;;;;;;;146.98;75.00;;;14.50;90.80;;;;;;5089402;28;20028;-53
2021/07/11 11:17:45;;;;;;;137.85;72.97;;;14.50;90.80;;;;;;5089275;28;20039;-51
2021/07/11 11:20:17;;;;;;;141.10;73.30;;;14.50;90.80;;;;;;5088239;28;20165;-52
2021/07/11 11:22:57;;;;;;;128.15;67.68;;;14.50;90.90;;;;;;5089834;28;20047;-50
2021/07/11 11:25:24;;;;;;;128.85;69.35;;;14.40;90.80;;;;;;5089385;28;20040;-52
2021/07/11 11:27:55;;;;;;;131.65;67.25;;;14.40;90.80;;;;;;5089174;28;20450;-48
2021/07/11 11:30:25;;;;;;;132.50;67.32;;;14.40;90.90;;;;;;5089484;28;20031;-50
2021/07/11 11:32:57;;;;;;;130.32;67.75;;;14.40;90.90;;;;;;5089230;28;20124;-53
2021/07/11 11:35:30;;;;;;;128.85;65.95;;;14.40;90.90;;;;;;5089772;28;20446;-56
2021/07/11 11:38:00;;;;;;;130.20;66.07;;;14.40;90.90;;;;;;5089653;28;20036;-50
2021/07/11 11:40:30;;;;;;;126.28;66.00;;;14.30;90.90;;;;;;5089301;28;20031;-50
2021/07/11 11:43:00;;;;;;;126.32;65.78;;;14.30;90.90;;;;;;5089124;28;20028;-56
2021/07/11 11:45:30;;;;;;;118.35;62.08;;;14.30;90.90;;;;;;5089113;28;20020;-50
2021/07/11 11:48:11;;;;;;;119.13;65.55;;;14.30;90.90;;;;;;5089139;28;20028;-58
2021/07/11 11:50:41;;;;;;;110.03;61.20;;;14.30;90.80;;;;;;5089482;28;20036;-52
2021/07/11 11:53:12;;;;;;;114.95;61.95;;;14.30;90.90;;;;;;5089041;28;20063;-52
2021/07/11 11:55:54;;;;;;;111.47;59.30;;;14.30;90.90;;;;;;5089258;28;20077;-50
2021/07/11 11:58:30;;;;;;;104.75;58.38;;;14.30;91.00;;;;;;5088982;28;20124;-47
2021/07/11 12:01:11;;;;;;;115.13;59.95;;;14.30;90.90;;;;;;5087243;28;20036;-47
2021/07/11 12:03:40;;;;;;;111.13;60.88;;;14.30;90.90;;;;;;5087924;28;20024;-51
2021/07/11 12:06:11;;;;;;;109.20;58.00;;;14.30;91.20;;;;;;5089427;28;20602;-49
2021/07/11 12:08:44;;;;;;;108.05;59.10;;;14.30;91.00;;;;;;5089330;28;20402;-53
2021/07/11 12:11:14;;;;;;;103.00;56.38;;;14.30;91.00;;;;;;5089495;28;20062;-49
2021/07/11 12:13:42;;;;;;;107.22;56.97;;;14.20;91.00;;;;;;5089027;28;20103;-47
2021/07/11 12:16:11;;;;;;;104.97;56.25;;;14.30;91.00;;;;;;5093022;28;20501;-50
2021/07/11 12:18:52;;;;;;;123.50;56.72;;;14.20;91.30;;;;;;5091769;28;20031;-54
2021/07/11 12:21:23;;;;;;;100.40;54.50;;;14.20;91.00;;;;;;5093038;28;20039;-57
2021/07/11 12:24:10;;;;;;;90.13;51.13;;;14.20;91.10;;;;;;5093202;28;20423;-58
2021/07/11 12:26:42;;;;;;;100.25;53.60;;;14.20;91.10;;;;;;5093195;28;20036;-53
2021/07/11 12:29:10;;;;;;;104.63;53.67;;;14.20;91.10;;;;;;5092539;28;20075;-50
2021/07/11 12:31:38;;;;;;;87.35;49.38;;;14.20;91.10;;;;;;5092457;28;20303;-54
2021/07/11 12:34:09;;;;;;;94.28;49.38;;;14.20;91.10;;;;;;5093094;28;20525;-52
2021/07/11 12:36:40;;;;;;;91.20;50.10;;;14.20;91.00;;;;;;5093014;28;20100;-53
2021/07/11 12:39:18;;;;;;;88.35;49.20;;;14.10;91.00;;;;;;5092751;28;20079;-57
2021/07/11 12:41:45;;;;;;;93.43;49.08;;;14.20;91.10;;;;;;5092792;28;20577;-55
2021/07/11 12:44:16;;;;;;;94.53;50.47;;;14.10;91.00;;;;;;5092958;28;20513;-57
2021/07/11 12:46:43;;;;;;;80.30;46.60;;;14.10;91.10;;;;;;5092763;28;20538;-52
2021/07/11 12:49:17;;;;;;;90.85;46.15;;;14.10;91.00;;;;;;5092809;28;20024;-52
2021/07/11 12:51:51;;;;;;;77.03;43.78;;;14.10;91.10;;;;;;5092369;28;20044;-54
2021/07/11 12:54:24;;;;;;;83.38;45.47;;;14.10;91.00;;;;;;5092327;28;20115;-54